Time;durP1;ratioP1;P1;durP2;ratioP2;P2;SDS_P1;SDS_P2;PMS_P1;PMS_P2;Temp;Humidity;BMP_temperature;BMP_pressure;BME280_temperature;BME280_humidity;BME280_pressure;Samples;Min_cycle;Max_cycle;Signal;HPM_P1;HPM_P2
2022/01/18 00:00:17;;;;;;;76.18;8.45;;;6.00;99.90;;;;;;6245600;22;20012;-80
2022/01/18 00:02:43;;;;;;;72.20;8.25;;;6.00;99.90;;;;;;6244729;22;20012;-80
2022/01/18 00:05:13;;;;;;;85.38;8.70;;;5.90;99.90;;;;;;6244332;22;20012;-79
2022/01/18 00:07:43;;;;;;;92.78;8.20;;;5.90;99.90;;;;;;6219409;22;20118;-79
2022/01/18 00:10:10;;;;;;;89.75;9.30;;;5.90;99.90;;;;;;6243685;22;20020;-79
2022/01/18 00:23:14;;;;;;;71.95;9.52;;;5.70;99.90;;;;;;6245681;22;20294;-79
2022/01/18 00:25:44;;;;;;;74.78;8.20;;;5.70;99.90;;;;;;6219721;22;20069;-79
2022/01/18 00:28:10;;;;;;;81.90;8.15;;;5.60;99.90;;;;;;6245956;22;20008;-79
2022/01/18 00:35:33;;;;;;;87.72;8.90;;;5.50;99.90;;;;;;6244833;22;20035;-79
2022/01/18 00:37:59;;;;;;;68.32;8.02;;;5.40;99.90;;;;;;6220753;22;20368;-79
2022/01/18 00:40:25;;;;;;;90.75;8.65;;;5.70;99.90;;;;;;6247436;22;20101;-79
2022/01/18 00:42:52;;;;;;;60.55;6.95;;;5.40;99.90;;;;;;6271848;22;20022;-78
2022/01/18 00:45:18;;;;;;;75.25;8.10;;;5.40;99.90;;;;;;6245087;22;20122;-79
2022/01/18 00:47:43;;;;;;;100.50;8.70;;;5.30;99.90;;;;;;6244480;22;20012;-79
2022/01/18 00:50:10;;;;;;;81.05;7.65;;;5.30;99.90;;;;;;6245201;22;20016;-79
2022/01/18 00:52:41;;;;;;;103.13;9.30;;;5.40;99.90;;;;;;6220432;22;20019;-78
2022/01/18 00:55:08;;;;;;;99.85;9.20;;;5.40;99.90;;;;;;6245575;22;20016;-79
2022/01/18 00:57:33;;;;;;;94.68;8.55;;;5.30;99.90;;;;;;6245993;22;20125;-79
2022/01/18 00:59:59;;;;;;;95.63;9.75;;;5.50;99.90;;;;;;6245619;22;20082;-79
2022/01/18 01:02:25;;;;;;;107.72;8.32;;;5.40;99.90;;;;;;6219939;22;20613;-78
2022/01/18 01:04:51;;;;;;;81.63;7.93;;;5.40;99.90;;;;;;6220294;22;20012;-79
2022/01/18 01:07:21;;;;;;;72.38;7.28;;;5.30;99.90;;;;;;6273260;22;20016;-79
2022/01/18 01:09:47;;;;;;;86.65;8.05;;;5.40;99.90;;;;;;6246059;22;20332;-78
2022/01/18 01:12:14;;;;;;;97.00;8.40;;;5.40;99.90;;;;;;6247895;22;20011;-79
2022/01/18 01:14:42;;;;;;;90.95;8.43;;;5.40;99.90;;;;;;6248074;22;20019;-79
2022/01/18 01:44:17;;;;;;;73.65;7.40;;;5.30;99.90;;;;;;6211581;23;20016;-79
2022/01/18 01:46:44;;;;;;;80.55;7.95;;;5.20;99.90;;;;;;6215075;23;20048;-78
2022/01/18 01:49:13;;;;;;;57.30;6.10;;;5.30;99.90;;;;;;6187018;23;20482;-78
2022/01/18 01:51:39;;;;;;;66.93;5.60;;;5.20;99.90;;;;;;6187366;23;20087;-79
2022/01/18 01:54:08;;;;;;;89.53;6.68;;;5.30;99.90;;;;;;6211289;23;20719;-79
2022/01/18 01:56:35;;;;;;;80.07;6.25;;;5.30;99.90;;;;;;6212751;23;20016;-79
2022/01/18 01:59:02;;;;;;;78.82;7.07;;;5.30;99.90;;;;;;6214199;23;20271;-78
2022/01/18 02:01:27;;;;;;;65.72;5.25;;;5.50;99.90;;;;;;6222286;23;20027;-79
2022/01/18 02:03:53;;;;;;;77.03;6.88;;;5.30;99.90;;;;;;6197474;23;20444;-78
2022/01/18 02:06:21;;;;;;;56.88;5.60;;;5.40;99.90;;;;;;6227198;23;20008;-78
2022/01/18 02:08:47;;;;;;;55.25;5.82;;;5.50;99.90;;;;;;6227346;23;20016;-78
2022/01/18 02:11:12;;;;;;;59.10;6.25;;;5.50;99.90;;;;;;6202109;23;20368;-77
2022/01/18 02:13:39;;;;;;;62.00;6.40;;;5.70;99.90;;;;;;6228393;23;20412;-78
2022/01/18 02:24:03;;;;;;;54.50;5.93;;;5.60;99.90;;;;;;6246496;22;20016;-79
2022/01/18 02:26:28;;;;;;;52.65;5.63;;;5.60;99.90;;;;;;6247833;22;20078;-78
2022/01/18 02:28:57;;;;;;;53.28;5.68;;;5.60;99.90;;;;;;6221645;22;20043;-79
2022/01/18 02:31:23;;;;;;;56.33;5.07;;;5.60;99.90;;;;;;6247232;22;20812;-79
2022/01/18 02:33:48;;;;;;;57.58;5.70;;;5.70;99.90;;;;;;6220679;22;20098;-79
2022/01/18 02:36:14;;;;;;;58.00;5.68;;;5.60;99.90;;;;;;6247144;22;20011;-79
2022/01/18 02:38:40;;;;;;;49.53;6.00;;;5.70;99.90;;;;;;6247058;22;20156;-79
2022/01/18 02:41:07;;;;;;;60.50;5.32;;;6.10;99.90;;;;;;6220954;22;20019;-79
2022/01/18 02:43:50;;;;;;;64.50;5.88;;;5.60;99.90;;;;;;6221193;22;20022;-79
2022/01/18 02:46:17;;;;;;;43.42;4.47;;;5.70;99.90;;;;;;6246939;22;20016;-79
2022/01/18 02:48:43;;;;;;;51.40;5.10;;;5.60;99.90;;;;;;6273745;22;20465;-79
2022/01/18 02:51:09;;;;;;;50.13;5.15;;;5.60;99.90;;;;;;6246659;22;20466;-79
2022/01/18 02:54:00;;;;;;;50.97;4.80;;;5.60;99.90;;;;;;6247080;22;20015;-79
2022/01/18 02:56:27;;;;;;;39.08;5.07;;;5.50;99.90;;;;;;6246810;22;20015;-79
2022/01/18 02:59:01;;;;;;;45.20;4.70;;;5.80;99.90;;;;;;6247070;22;20016;-79
2022/01/18 03:04:11;;;;;;;51.45;5.03;;;5.70;99.90;;;;;;6245264;22;20057;-79
2022/01/18 03:06:36;;;;;;;37.70;4.03;;;5.70;99.90;;;;;;6221611;22;20107;-79
2022/01/18 03:09:02;;;;;;;48.22;5.07;;;5.80;99.90;;;;;;6246313;22;20020;-79
2022/01/18 03:11:28;;;;;;;36.05;4.03;;;5.80;99.90;;;;;;6246987;22;20016;-79
2022/01/18 03:13:54;;;;;;;39.40;4.68;;;5.90;99.90;;;;;;6246116;22;20030;-79
2022/01/18 03:16:20;;;;;;;38.10;4.18;;;5.90;99.90;;;;;;6246503;22;20289;-79
2022/01/18 03:18:46;;;;;;;44.95;4.40;;;6.00;99.90;;;;;;6245909;22;20020;-79
2022/01/18 03:21:11;;;;;;;37.00;3.92;;;6.00;99.90;;;;;;6221221;22;20354;-79
2022/01/18 03:23:37;;;;;;;29.33;3.55;;;6.00;99.90;;;;;;6220696;22;20019;-79
2022/01/18 03:26:14;;;;;;;27.52;3.20;;;6.10;99.90;;;;;;6245753;22;20010;-79
2022/01/18 03:28:39;;;;;;;39.17;3.88;;;6.20;99.90;;;;;;6221251;22;20015;-79
2022/01/18 03:31:05;;;;;;;21.80;2.85;;;6.20;99.90;;;;;;6221509;22;20336;-79
2022/01/18 03:33:31;;;;;;;33.22;3.22;;;6.20;99.90;;;;;;6220520;22;20016;-79
2022/01/18 03:35:57;;;;;;;23.38;3.40;;;6.20;99.90;;;;;;6245818;22;20080;-79
2022/01/18 03:38:30;;;;;;;32.50;4.45;;;6.40;99.90;;;;;;6221303;22;20008;-79
2022/01/18 03:41:02;;;;;;;32.65;3.30;;;6.20;99.90;;;;;;6245691;22;20116;-79
2022/01/18 03:43:34;;;;;;;40.20;3.95;;;6.20;99.90;;;;;;6246340;22;20027;-79
2022/01/18 03:46:02;;;;;;;20.90;2.75;;;6.20;99.90;;;;;;6246353;22;20018;-79
2022/01/18 03:48:33;;;;;;;32.58;3.85;;;6.20;99.90;;;;;;6220357;22;20020;-79
2022/01/18 03:50:59;;;;;;;34.90;4.07;;;6.20;99.90;;;;;;6246118;22;20472;-79
2022/01/18 03:53:25;;;;;;;38.25;3.78;;;6.10;99.90;;;;;;6246515;22;20047;-79
2022/01/18 03:55:53;;;;;;;34.05;3.80;;;6.20;99.90;;;;;;6245388;22;20018;-79
2022/01/18 03:58:19;;;;;;;27.52;3.40;;;6.20;99.90;;;;;;6246217;22;20446;-79
2022/01/18 04:00:45;;;;;;;29.48;3.22;;;6.20;99.90;;;;;;6222212;22;20165;-79
2022/01/18 04:03:10;;;;;;;24.90;2.78;;;6.20;99.90;;;;;;6220535;22;20019;-79
2022/01/18 04:05:36;;;;;;;22.05;3.42;;;6.20;99.90;;;;;;6220868;22;20012;-79
2022/01/18 04:08:02;;;;;;;24.90;3.78;;;6.10;99.90;;;;;;6246122;22;20031;-79
2022/01/18 04:10:28;;;;;;;26.25;2.83;;;6.10;99.90;;;;;;6220621;22;20018;-79
2022/01/18 04:12:56;;;;;;;27.42;3.30;;;6.30;99.90;;;;;;6224823;22;20389;-79
2022/01/18 04:15:23;;;;;;;20.95;2.65;;;6.10;99.90;;;;;;6245731;22;20027;-79
2022/01/18 04:28:23;;;;;;;27.80;2.97;;;6.10;99.90;;;;;;6246480;22;20330;-79
2022/01/18 04:30:48;;;;;;;27.48;3.05;;;6.00;99.90;;;;;;6246963;22;20012;-79
2022/01/18 04:33:14;;;;;;;26.00;3.50;;;6.00;99.90;;;;;;6245723;22;20062;-79
2022/01/18 04:35:40;;;;;;;22.38;2.88;;;6.10;99.90;;;;;;6221232;22;20012;-79
2022/01/18 04:38:06;;;;;;;29.60;2.85;;;6.10;99.90;;;;;;6221458;22;20015;-79
2022/01/18 04:40:33;;;;;;;20.58;2.70;;;6.10;99.90;;;;;;6246167;22;20011;-79
2022/01/18 04:50:52;;;;;;;31.60;2.50;;;6.10;99.90;;;;;;6248085;22;20012;-79
2022/01/18 04:53:18;;;;;;;20.10;2.90;;;6.60;99.90;;;;;;6248277;22;20418;-79
2022/01/18 04:55:43;;;;;;;23.08;2.53;;;6.10;99.90;;;;;;6247050;22;20020;-79
2022/01/18 04:58:09;;;;;;;21.65;2.47;;;6.20;99.90;;;;;;6275638;22;20035;-79
2022/01/18 05:00:35;;;;;;;20.40;2.72;;;6.10;99.90;;;;;;6248290;22;20476;-79
2022/01/18 05:03:01;;;;;;;20.15;2.33;;;6.20;99.90;;;;;;6222270;22;20428;-79
2022/01/18 05:05:29;;;;;;;21.23;2.65;;;6.20;99.90;;;;;;6247774;22;20020;-79
2022/01/18 05:08:00;;;;;;;22.02;2.38;;;6.20;99.90;;;;;;6222873;22;20008;-79
2022/01/18 05:10:28;;;;;;;20.25;2.60;;;6.20;99.90;;;;;;6247609;22;20087;-79
2022/01/18 05:12:56;;;;;;;21.00;2.33;;;6.20;99.90;;;;;;6248362;22;20012;-79
2022/01/18 05:23:10;;;;;;;22.45;3.00;;;6.20;99.90;;;;;;6248050;22;20028;-79
2022/01/18 05:25:36;;;;;;;25.23;3.00;;;6.10;99.90;;;;;;6247355;22;20411;-79
2022/01/18 05:28:04;;;;;;;19.25;2.67;;;6.20;99.90;;;;;;6248071;22;20076;-79
2022/01/18 05:30:30;;;;;;;22.13;2.47;;;6.20;99.90;;;;;;6222523;22;20458;-79
2022/01/18 05:32:58;;;;;;;23.63;2.72;;;6.10;99.90;;;;;;6247311;22;20110;-79
2022/01/18 05:35:24;;;;;;;17.48;2.35;;;6.10;99.90;;;;;;6221811;22;20041;-79
2022/01/18 05:37:50;;;;;;;14.85;2.53;;;6.20;99.90;;;;;;6247747;22;20019;-79
2022/01/18 05:40:18;;;;;;;24.17;2.70;;;6.00;99.90;;;;;;6247094;22;20029;-79
2022/01/18 05:42:44;;;;;;;16.45;2.28;;;6.10;99.90;;;;;;6247454;22;20050;-80
2022/01/18 05:45:10;;;;;;;17.90;2.55;;;6.10;99.90;;;;;;6221882;22;20111;-79
2022/01/18 05:47:38;;;;;;;23.30;3.00;;;6.10;99.90;;;;;;6221320;22;20106;-79
2022/01/18 05:50:05;;;;;;;18.80;2.15;;;6.00;99.90;;;;;;6246797;22;20012;-79
2022/01/18 05:52:31;;;;;;;18.27;2.42;;;6.10;99.90;;;;;;6221472;22;20038;-79
2022/01/18 05:54:57;;;;;;;16.33;2.38;;;6.10;99.90;;;;;;6246642;22;20012;-79
2022/01/18 05:57:22;;;;;;;14.75;2.97;;;6.10;99.90;;;;;;6222111;22;20397;-79
2022/01/18 05:59:50;;;;;;;17.50;2.70;;;6.10;99.90;;;;;;6247033;22;20335;-79
2022/01/18 06:02:18;;;;;;;18.95;2.90;;;6.00;99.90;;;;;;6247501;22;20085;-79
2022/01/18 06:07:29;;;;;;;16.42;2.35;;;6.20;99.90;;;;;;6247219;22;20051;-79
2022/01/18 06:09:58;;;;;;;17.77;2.53;;;6.10;99.90;;;;;;6246333;22;20769;-79
2022/01/18 06:12:25;;;;;;;17.05;2.15;;;6.20;99.90;;;;;;6247489;22;20734;-78
2022/01/18 06:14:50;;;;;;;26.80;2.90;;;6.30;99.90;;;;;;6246876;22;20015;-78
2022/01/18 06:17:16;;;;;;;30.23;3.65;;;6.10;99.90;;;;;;6246760;22;20021;-79
2022/01/18 06:19:42;;;;;;;20.45;2.78;;;6.10;99.90;;;;;;6246350;22;20027;-79
2022/01/18 06:22:07;;;;;;;18.90;2.65;;;6.10;99.90;;;;;;6247095;22;20090;-78
2022/01/18 06:24:33;;;;;;;24.10;2.80;;;6.10;99.90;;;;;;6246119;22;20007;-79
2022/01/18 06:26:59;;;;;;;30.30;3.80;;;6.10;99.90;;;;;;6247188;22;20386;-80
2022/01/18 06:29:24;;;;;;;22.13;2.63;;;6.10;99.90;;;;;;6221640;22;20019;-78
2022/01/18 06:31:50;;;;;;;16.33;2.67;;;6.00;99.90;;;;;;6222074;22;20488;-78
2022/01/18 06:34:16;;;;;;;20.85;3.25;;;6.00;99.90;;;;;;6221318;22;20094;-79
2022/01/18 06:36:42;;;;;;;18.63;3.25;;;6.00;99.90;;;;;;6221847;22;20015;-78
2022/01/18 06:39:08;;;;;;;21.30;3.28;;;6.00;99.90;;;;;;6220988;22;20015;-79
2022/01/18 06:41:33;;;;;;;26.08;2.92;;;6.00;99.90;;;;;;6247124;22;20008;-78
2022/01/18 06:43:59;;;;;;;12.82;2.10;;;5.90;99.90;;;;;;6274068;22;20011;-76
2022/01/18 06:46:25;;;;;;;19.17;2.33;;;6.30;99.90;;;;;;6221639;22;20380;-75
2022/01/18 06:48:50;;;;;;;16.25;2.63;;;7.50;99.90;;;;;;6246611;22;20007;-79
2022/01/18 06:51:16;;;;;;;25.67;3.75;;;7.10;99.90;;;;;;6247415;22;20285;-77
2022/01/18 06:53:47;;;;;;;17.10;2.78;;;6.80;99.90;;;;;;6222458;22;20018;-79
2022/01/18 06:56:17;;;;;;;24.73;3.85;;;6.70;99.90;;;;;;6247521;22;20479;-79
2022/01/18 06:58:43;;;;;;;23.20;3.40;;;6.50;99.90;;;;;;6246778;22;20111;-79
2022/01/18 07:01:10;;;;;;;20.38;4.03;;;6.40;99.90;;;;;;6246450;22;20347;-78
2022/01/18 07:03:36;;;;;;;28.15;4.05;;;6.30;99.90;;;;;;6245931;22;20020;-78
2022/01/18 07:06:02;;;;;;;30.45;3.92;;;6.20;99.90;;;;;;6246624;22;20110;-78
2022/01/18 07:08:27;;;;;;;21.50;3.63;;;6.20;99.90;;;;;;6274395;22;20099;-78
2022/01/18 07:10:53;;;;;;;26.15;3.85;;;6.10;99.90;;;;;;6246844;22;20381;-79
2022/01/18 07:13:19;;;;;;;25.17;3.88;;;6.10;99.90;;;;;;6246766;22;20098;-79
2022/01/18 07:15:44;;;;;;;20.05;3.55;;;6.00;99.90;;;;;;6246992;22;20016;-78
2022/01/18 07:18:10;;;;;;;27.17;3.92;;;6.00;99.90;;;;;;6208343;23;20025;-79
2022/01/18 07:20:38;;;;;;;23.92;3.88;;;5.90;99.90;;;;;;6185428;23;20302;-80
2022/01/18 07:23:07;;;;;;;19.05;3.63;;;6.00;99.90;;;;;;6186123;23;20079;-79
2022/01/18 07:25:33;;;;;;;25.05;4.03;;;6.00;99.90;;;;;;6210441;23;20016;-79
2022/01/18 07:27:59;;;;;;;32.60;5.07;;;5.90;99.90;;;;;;6185823;23;20013;-80
2022/01/18 07:30:24;;;;;;;29.15;4.95;;;6.20;99.90;;;;;;6213041;23;20012;-80
2022/01/18 07:32:50;;;;;;;19.08;4.10;;;5.80;99.90;;;;;;6185295;23;20013;-79
2022/01/18 07:35:17;;;;;;;17.85;3.78;;;5.90;99.90;;;;;;6211221;23;20281;-78
2022/01/18 07:37:43;;;;;;;25.80;4.72;;;5.90;99.90;;;;;;6186458;23;20020;-80
2022/01/18 07:40:09;;;;;;;30.25;4.40;;;5.80;99.90;;;;;;6185699;23;20502;-79
2022/01/18 07:42:36;;;;;;;24.63;4.70;;;5.80;99.90;;;;;;6211865;23;20454;-80
2022/01/18 07:45:04;;;;;;;21.58;4.53;;;6.30;99.90;;;;;;6211154;23;20015;-78
2022/01/18 07:47:29;;;;;;;24.83;4.50;;;5.70;99.90;;;;;;6210668;23;20059;-79
2022/01/18 07:49:55;;;;;;;21.88;4.55;;;5.70;99.90;;;;;;6185774;23;20317;-77
2022/01/18 07:52:21;;;;;;;17.30;4.70;;;5.70;99.90;;;;;;6212305;23;20032;-80
2022/01/18 07:54:46;;;;;;;28.70;4.75;;;5.70;99.90;;;;;;6211850;23;20016;-80
2022/01/18 07:57:14;;;;;;;25.27;4.10;;;5.60;99.90;;;;;;6185609;23;20035;-81
2022/01/18 07:59:39;;;;;;;23.48;4.20;;;5.60;99.90;;;;;;6186044;23;20017;-79
2022/01/18 08:02:06;;;;;;;25.63;4.97;;;5.60;99.90;;;;;;6211322;23;20023;-79
2022/01/18 08:04:31;;;;;;;19.95;4.95;;;5.50;99.90;;;;;;6210045;23;20012;-79
2022/01/18 08:06:57;;;;;;;26.30;5.22;;;5.50;99.90;;;;;;6211277;23;20009;-80
2022/01/18 08:09:23;;;;;;;21.20;4.47;;;5.40;99.90;;;;;;6183990;23;20012;-78
2022/01/18 08:11:52;;;;;;;26.52;4.95;;;5.50;99.90;;;;;;6211217;23;20147;-79
2022/01/18 08:14:19;;;;;;;19.05;4.38;;;5.70;99.90;;;;;;6209244;23;20015;-78
2022/01/18 08:16:59;;;;;;;30.55;4.80;;;5.40;99.90;;;;;;6186587;23;20044;-79
2022/01/18 08:19:26;;;;;;;23.20;4.47;;;5.40;99.90;;;;;;6211861;23;20447;-79
2022/01/18 08:21:52;;;;;;;24.52;4.75;;;5.40;99.90;;;;;;6213896;23;20048;-79
2022/01/18 08:24:18;;;;;;;27.33;5.07;;;5.30;99.90;;;;;;6213074;23;20029;-78
2022/01/18 08:26:43;;;;;;;18.38;4.38;;;5.40;99.90;;;;;;6213431;23;20031;-78
2022/01/18 08:29:12;;;;;;;25.10;4.53;;;5.30;99.90;;;;;;6213806;23;20016;-79
2022/01/18 08:31:38;;;;;;;26.17;4.38;;;5.30;99.90;;;;;;6188872;23;20177;-79
2022/01/18 08:34:14;;;;;;;28.20;4.95;;;5.40;99.90;;;;;;6187896;23;20036;-81
2022/01/18 08:36:43;;;;;;;23.05;4.85;;;5.30;99.90;;;;;;6188854;23;20329;-80
2022/01/18 08:39:09;;;;;;;17.90;3.92;;;5.30;99.90;;;;;;6188193;23;20012;-79
2022/01/18 08:41:35;;;;;;;28.15;5.07;;;5.30;99.90;;;;;;6213560;23;20012;-78
2022/01/18 08:44:02;;;;;;;24.13;4.38;;;5.30;99.90;;;;;;6213711;23;20016;-78
2022/01/18 08:46:28;;;;;;;20.33;5.53;;;5.50;99.90;;;;;;6212929;23;20020;-77
2022/01/18 08:48:54;;;;;;;23.77;4.38;;;5.40;99.90;;;;;;6213258;23;20051;-77
2022/01/18 08:51:20;;;;;;;26.50;4.47;;;5.50;99.90;;;;;;6212294;23;20013;-78
2022/01/18 08:53:48;;;;;;;20.55;4.22;;;5.50;99.90;;;;;;6213169;23;20017;-78
2022/01/18 08:56:17;;;;;;;17.38;3.67;;;5.60;99.90;;;;;;6213535;23;20048;-78
2022/01/18 08:58:44;;;;;;;16.08;4.22;;;5.70;99.90;;;;;;6214708;23;20019;-79
2022/01/18 09:01:10;;;;;;;23.65;4.15;;;5.60;99.90;;;;;;6189240;23;20023;-77
2022/01/18 09:03:36;;;;;;;21.25;4.10;;;5.70;99.90;;;;;;6213307;23;20020;-79
2022/01/18 09:06:04;;;;;;;20.33;4.60;;;5.80;99.90;;;;;;6188633;23;20012;-79
2022/01/18 09:08:30;;;;;;;19.73;4.30;;;5.80;99.90;;;;;;6213416;23;20417;-79
2022/01/18 09:10:56;;;;;;;19.40;4.40;;;5.90;99.90;;;;;;6188130;23;20380;-79
2022/01/18 09:13:22;;;;;;;21.45;4.43;;;5.90;99.90;;;;;;6213795;23;20486;-79
2022/01/18 09:15:50;;;;;;;20.98;5.00;;;6.00;99.90;;;;;;6187533;23;20103;-79
2022/01/18 09:18:16;;;;;;;23.08;4.25;;;6.00;99.90;;;;;;6231487;22;20070;-79
2022/01/18 09:20:42;;;;;;;24.33;4.15;;;6.10;99.90;;;;;;6222628;22;20008;-79
2022/01/18 09:23:08;;;;;;;25.88;4.78;;;6.20;99.90;;;;;;6222891;22;20378;-79
2022/01/18 09:25:34;;;;;;;25.27;3.95;;;6.20;99.90;;;;;;6247648;22;20012;-79
2022/01/18 09:28:01;;;;;;;20.02;4.25;;;6.20;99.90;;;;;;6247601;22;20012;-79
2022/01/18 09:30:28;;;;;;;20.60;5.28;;;6.30;99.90;;;;;;6221785;22;20011;-79
2022/01/18 09:32:55;;;;;;;23.35;4.85;;;6.30;99.90;;;;;;6222033;22;20058;-78
2022/01/18 09:35:21;;;;;;;18.92;4.53;;;6.40;99.90;;;;;;6247667;22;20016;-79
2022/01/18 09:37:48;;;;;;;18.33;5.07;;;6.40;99.90;;;;;;6247630;22;20404;-79
2022/01/18 09:40:18;;;;;;;29.52;6.07;;;6.50;99.90;;;;;;6248105;22;20454;-79
2022/01/18 09:42:51;;;;;;;24.27;6.45;;;6.60;99.90;;;;;;6248011;22;20016;-79
2022/01/18 09:45:17;;;;;;;27.60;6.28;;;6.50;99.90;;;;;;6247658;22;20022;-79
2022/01/18 09:47:48;;;;;;;26.00;6.43;;;6.50;99.90;;;;;;6246899;22;20293;-79
2022/01/18 09:50:29;;;;;;;28.27;6.70;;;6.50;99.90;;;;;;6222170;22;20020;-79
2022/01/18 09:52:56;;;;;;;27.70;6.65;;;6.60;99.90;;;;;;6247965;22;20015;-79
2022/01/18 09:55:25;;;;;;;29.42;6.30;;;6.60;99.90;;;;;;6248337;22;20087;-79
2022/01/18 09:57:52;;;;;;;30.08;7.53;;;6.60;99.90;;;;;;6247080;22;20054;-79
2022/01/18 10:00:20;;;;;;;32.22;7.40;;;6.70;99.90;;;;;;6221811;22;20016;-79
2022/01/18 10:02:47;;;;;;;26.17;6.93;;;6.70;99.90;;;;;;6245693;22;20384;-80
2022/01/18 10:05:34;;;;;;;30.02;7.03;;;6.80;99.90;;;;;;6246396;22;20383;-80
2022/01/18 10:08:10;;;;;;;24.85;7.07;;;6.90;99.90;;;;;;6246987;22;20065;-80
2022/01/18 10:10:40;;;;;;;26.77;7.03;;;6.90;99.90;;;;;;6247649;22;20096;-78
2022/01/18 10:13:07;;;;;;;26.98;7.38;;;7.00;99.90;;;;;;6222042;22;20086;-77
2022/01/18 10:15:34;;;;;;;26.98;6.88;;;6.90;99.90;;;;;;6247065;22;20050;-77
2022/01/18 10:18:08;;;;;;;19.92;4.88;;;7.00;99.90;;;;;;6246728;22;20399;-76
2022/01/18 10:20:52;;;;;;;17.92;4.93;;;7.10;99.90;;;;;;6246494;22;20051;-76
2022/01/18 10:23:23;;;;;;;20.27;5.15;;;7.10;99.90;;;;;;6246954;22;20141;-76
2022/01/18 10:25:49;;;;;;;19.20;4.03;;;7.10;99.90;;;;;;6220771;22;20012;-77
2022/01/18 10:28:28;;;;;;;18.90;4.18;;;7.10;99.90;;;;;;6246907;22;20011;-76
2022/01/18 10:30:55;;;;;;;17.20;3.78;;;7.10;99.90;;;;;;6246785;22;20332;-78
2022/01/18 10:33:27;;;;;;;28.63;5.20;;;7.00;99.90;;;;;;6221523;22;20034;-78
2022/01/18 10:36:14;;;;;;;23.92;5.07;;;7.10;99.90;;;;;;6222019;22;20020;-79
2022/01/18 10:38:47;;;;;;;14.32;4.38;;;7.00;99.90;;;;;;6222633;22;20125;-79
2022/01/18 10:41:34;;;;;;;18.20;4.57;;;6.90;99.90;;;;;;6221876;22;20016;-78
2022/01/18 10:44:15;;;;;;;20.30;4.05;;;7.00;99.90;;;;;;6246582;22;20012;-78
2022/01/18 10:46:44;;;;;;;22.70;4.30;;;6.90;99.90;;;;;;6246780;22;20277;-80
2022/01/18 10:49:23;;;;;;;22.25;4.30;;;7.00;99.90;;;;;;6220987;22;20007;-79
2022/01/18 10:52:06;;;;;;;21.88;4.03;;;7.20;99.90;;;;;;6245666;22;20016;-78
2022/01/18 10:54:49;;;;;;;20.95;4.43;;;7.20;99.90;;;;;;6221353;22;20046;-78
2022/01/18 10:57:22;;;;;;;17.65;4.18;;;7.10;99.90;;;;;;6246942;22;20409;-78
2022/01/18 10:59:54;;;;;;;16.55;4.35;;;7.10;99.90;;;;;;6247664;22;20138;-78
2022/01/18 11:02:21;;;;;;;25.75;4.45;;;7.10;99.90;;;;;;6221033;22;20035;-78
2022/01/18 11:04:50;;;;;;;16.88;4.53;;;7.10;99.90;;;;;;6246581;22;20344;-78
2022/01/18 11:07:19;;;;;;;23.48;3.95;;;7.20;99.90;;;;;;6247940;22;20012;-79
2022/01/18 11:09:45;;;;;;;18.65;4.13;;;7.10;99.90;;;;;;6245984;22;20011;-78
2022/01/18 11:12:11;;;;;;;16.45;4.30;;;7.00;99.90;;;;;;6247536;22;20014;-78
2022/01/18 11:14:44;;;;;;;15.60;3.63;;;7.20;99.90;;;;;;6222663;22;20012;-78
2022/01/18 11:17:19;;;;;;;17.73;3.78;;;7.10;99.90;;;;;;6221701;22;20312;-79
2022/01/18 11:19:48;;;;;;;20.58;4.40;;;7.10;99.90;;;;;;6215890;23;20479;-78
2022/01/18 11:22:14;;;;;;;23.02;3.67;;;7.30;99.90;;;;;;6213816;23;20016;-78
2022/01/18 11:24:42;;;;;;;12.60;2.67;;;7.20;99.90;;;;;;6186247;23;20096;-78
2022/01/18 11:27:12;;;;;;;15.57;3.13;;;7.20;99.90;;;;;;6212055;23;20013;-79
2022/01/18 11:29:40;;;;;;;13.05;3.08;;;7.30;99.90;;;;;;6212150;23;20012;-78
2022/01/18 11:32:06;;;;;;;10.65;2.50;;;7.30;99.90;;;;;;6212368;23;20020;-78
2022/01/18 11:34:45;;;;;;;13.30;2.70;;;7.30;99.90;;;;;;6184986;23;20020;-78
2022/01/18 11:37:34;;;;;;;16.17;2.78;;;7.20;99.90;;;;;;6187227;23;20020;-78
2022/01/18 11:40:12;;;;;;;11.75;3.00;;;7.30;99.90;;;;;;6210837;23;20017;-78
2022/01/18 11:42:46;;;;;;;16.90;3.28;;;7.30;99.90;;;;;;6211436;23;20012;-78
2022/01/18 11:45:24;;;;;;;14.30;3.13;;;7.20;99.90;;;;;;6212084;23;20016;-78
2022/01/18 11:48:04;;;;;;;17.58;3.30;;;7.20;99.90;;;;;;6186897;23;20024;-78
2022/01/18 11:50:40;;;;;;;15.40;3.28;;;7.30;99.90;;;;;;6211419;23;20013;-78
2022/01/18 11:54:05;;;;;;;15.13;3.40;;;7.40;99.90;;;;;;6186980;23;20016;-78
2022/01/18 11:56:37;;;;;;;18.80;4.00;;;7.30;99.90;;;;;;6212381;23;20017;-79
2022/01/18 11:59:39;;;;;;;15.35;3.60;;;7.20;99.90;;;;;;6213569;23;20016;-78
2022/01/18 12:02:06;;;;;;;23.48;4.20;;;7.20;99.90;;;;;;6185199;23;20023;-78
2022/01/18 12:04:40;;;;;;;12.27;3.72;;;7.20;99.90;;;;;;6184795;23;20051;-79
2022/01/18 12:07:08;;;;;;;20.15;3.90;;;7.20;99.90;;;;;;6186092;23;20119;-79
2022/01/18 12:09:47;;;;;;;15.00;3.42;;;7.20;99.90;;;;;;6211276;23;20066;-80
2022/01/18 12:12:41;;;;;;;10.82;3.75;;;7.20;99.90;;;;;;6187054;23;20019;-79
2022/01/18 12:15:16;;;;;;;13.07;3.95;;;7.20;99.90;;;;;;6211321;23;20012;-80
2022/01/18 12:17:59;;;;;;;15.88;3.67;;;7.20;99.90;;;;;;6213598;22;20083;-79
2022/01/18 12:20:42;;;;;;;18.23;3.90;;;7.10;99.90;;;;;;6244965;22;20019;-81
2022/01/18 12:23:17;;;;;;;17.33;4.57;;;7.10;99.90;;;;;;6245795;22;20016;-78
2022/01/18 12:26:14;;;;;;;19.20;4.90;;;7.10;99.90;;;;;;6245411;22;20058;-79
2022/01/18 12:34:30;;;;;;;16.85;4.90;;;7.10;99.90;;;;;;6153863;23;20569;-78
2022/01/18 12:36:56;;;;;;;13.55;5.00;;;7.10;99.90;;;;;;6131256;23;20107;-80
2022/01/18 12:39:33;;;;;;;22.77;5.60;;;6.90;99.90;;;;;;6153395;23;20020;-81
2022/01/18 12:44:20;;;;;;;19.13;5.70;;;6.90;99.90;;;;;;6154203;23;20039;-83
2022/01/18 12:45:07;;;;;;;25.17;5.78;;;6.90;99.90;;;;;;6151599;23;20463;-78
2022/01/18 12:47:36;;;;;;;21.40;6.68;;;6.90;99.90;;;;;;6129009;23;20045;-78
2022/01/18 12:50:10;;;;;;;21.42;5.78;;;7.50;99.90;;;;;;6129554;23;20020;-78
2022/01/18 12:52:54;;;;;;;31.50;6.50;;;7.00;99.90;;;;;;6153659;23;20438;-79
2022/01/18 12:55:38;;;;;;;18.70;5.35;;;7.00;99.90;;;;;;6152525;23;20174;-81
2022/01/18 12:58:26;;;;;;;18.13;5.10;;;7.00;99.90;;;;;;6129327;23;20457;-80
2022/01/18 13:01:02;;;;;;;17.55;5.18;;;7.10;99.90;;;;;;6152840;23;20551;-80
2022/01/18 13:03:39;;;;;;;21.83;6.00;;;7.00;99.90;;;;;;6128610;23;20368;-81
2022/01/18 13:06:09;;;;;;;19.48;5.68;;;7.10;99.90;;;;;;6129792;23;20013;-79
2022/01/18 13:08:57;;;;;;;27.48;6.05;;;7.30;99.90;;;;;;6155403;23;20089;-81
2022/01/18 13:11:37;;;;;;;21.55;5.57;;;7.10;99.90;;;;;;6171609;22;20012;-81
2022/01/18 13:14:35;;;;;;;17.42;5.57;;;7.10;99.90;;;;;;6219647;22;20122;-83
2022/01/18 13:27:11;;;;;;;21.50;6.30;;;7.10;99.90;;;;;;6155236;23;20013;-81
2022/01/18 13:29:43;;;;;;;20.20;6.35;;;7.40;99.90;;;;;;6178449;23;20052;-80
2022/01/18 13:32:27;;;;;;;20.92;7.15;;;7.20;99.90;;;;;;6133746;23;20032;-80
2022/01/18 13:35:05;;;;;;;26.33;7.20;;;8.10;99.90;;;;;;6131994;23;20092;-80
2022/01/18 13:37:42;;;;;;;30.00;7.43;;;6.90;99.90;;;;;;6156429;23;20017;-81
2022/01/18 13:40:55;;;;;;;21.27;6.63;;;7.40;99.90;;;;;;6130454;23;20051;-81
2022/01/18 13:43:29;;;;;;;22.15;6.70;;;7.50;99.90;;;;;;6040133;23;20051;-81
2022/01/18 13:46:21;;;;;;;30.88;7.05;;;7.40;99.90;;;;;;6016262;23;20334;-80
2022/01/18 13:49:24;;;;;;;17.73;6.00;;;7.00;99.90;;;;;;6017180;23;20054;-80
2022/01/18 13:52:07;;;;;;;31.45;7.25;;;7.50;99.90;;;;;;5991626;23;20463;-78
2022/01/18 13:54:48;;;;;;;22.92;6.47;;;7.50;99.90;;;;;;6014729;23;20556;-77
2022/01/18 13:57:15;;;;;;;23.98;7.47;;;7.50;99.90;;;;;;6012912;23;20014;-77
2022/01/18 13:59:41;;;;;;;23.63;7.20;;;7.40;99.90;;;;;;6014035;23;20097;-78
2022/01/18 14:02:23;;;;;;;24.30;6.72;;;7.40;99.90;;;;;;6037101;23;20383;-76
2022/01/18 14:05:08;;;;;;;23.25;7.13;;;7.20;99.90;;;;;;6038510;23;20019;-77
2022/01/18 14:07:34;;;;;;;22.17;7.05;;;7.30;99.90;;;;;;6036967;23;20019;-79
2022/01/18 14:10:00;;;;;;;17.48;6.45;;;7.40;99.90;;;;;;6035548;23;20054;-76
2022/01/18 14:12:34;;;;;;;17.75;6.65;;;7.20;99.90;;;;;;6039070;23;20428;-76
2022/01/18 14:15:00;;;;;;;20.25;7.20;;;7.10;99.90;;;;;;6104687;23;20013;-76
2022/01/18 14:17:26;;;;;;;24.45;7.03;;;7.00;99.90;;;;;;6094447;23;20018;-75
2022/01/18 14:20:15;;;;;;;24.05;7.40;;;7.00;99.90;;;;;;6120781;22;20016;-76
2022/01/18 14:22:41;;;;;;;25.33;6.70;;;7.00;99.90;;;;;;6245111;22;20434;-77
2022/01/18 14:25:08;;;;;;;19.52;6.50;;;7.00;99.90;;;;;;6273627;22;20011;-77
2022/01/18 14:27:42;;;;;;;24.05;6.60;;;7.00;99.90;;;;;;6247032;22;20086;-78
2022/01/18 14:30:11;;;;;;;19.55;6.32;;;6.90;99.90;;;;;;6220792;22;20070;-79
2022/01/18 14:32:42;;;;;;;19.63;6.00;;;7.00;99.90;;;;;;6245281;22;20023;-80
2022/01/18 14:35:23;;;;;;;21.65;5.97;;;6.90;99.90;;;;;;6246032;22;20016;-79
2022/01/18 14:38:27;;;;;;;20.58;6.20;;;6.90;99.90;;;;;;6245803;22;20522;-79